Nikkoumaru No.5 — JD2407 — position and weather

sailwx.info

Track history (hours):
 
Tides and Currents Weather Stations Pressure Air Temp Water Temp Dewpoint Dewpoint Depression Visibility Wind Speed Wind Dir Waves Ship Positions

Nikkoumaru No.5

Last reported at 2018-Jun-22 00:27 UTC. Time now 2018-Jun-23 10:22 UTC.
Position N 34°28' E 134°31'.

Length 61 m; draft 3.6 m.

Type: Tanker. MMSI: 431000214.

Date/timePositionNaut miles runAvg speedWind from/ knotsBaromVisibWave heightAir tempDewpointWater temp
2018-Jun-22 00:27N 34°28' E 134°31'811.8
2018-Jun-21 23:47N 34°31' E 134°39'411.6
2018-Jun-21 23:28N 34°32' E 134°44'1511.0
2018-Jun-21 22:05N 34°37' E 135°01'110.7
2018-Jun-21 21:59N 34°37' E 135°02'510.7
2018-Jun-21 21:30N 34°33' E 135°07'611.3
2018-Jun-21 21:01N 34°28' E 135°05'611.7
2018-Jun-21 20:30N 34°22' E 135°04'611.5
2018-Jun-21 20:00N 34°16' E 135°03'611.5
2018-Jun-21 19:30N 34°11' E 135°03'612.1
2018-Jun-21 19:00N 34°05' E 135°03'611.7
2018-Jun-21 18:30N 33°59' E 135°02'  
2018-Jun-19 06:08N 35°09' E 139°43'312.4
2018-Jun-19 05:53N 35°12' E 139°45'511.6
2018-Jun-19 05:29N 35°17' E 139°45'611.8
2018-Jun-19 05:00N 35°21' E 139°42'611.2
2018-Jun-19 04:30N 35°26' E 139°46'612.2
2018-Jun-19 04:00N 35°30' E 139°51'1 0.0
2018-Jun-17 22:13N 35°30' E 139°50'0 0.6
2018-Jun-17 21:41N 35°30' E 139°49'0 0.0
2018-Jun-17 21:26N 35°30' E 139°49'0 0.0
2018-Jun-17 20:59N 35°30' E 139°49'0 0.0
2018-Jun-17 20:11N 35°30' E 139°49'0 0.0
2018-Jun-17 19:53N 35°30' E 139°49'0 0.0
2018-Jun-17 19:29N 35°30' E 139°49'0 0.0
2018-Jun-17 18:59N 35°30' E 139°49'0 0.0
2018-Jun-17 17:47N 35°30' E 139°49'0 0.0
2018-Jun-17 17:29N 35°30' E 139°49'0 0.0
2018-Jun-17 16:59N 35°30' E 139°49'0 0.0
2018-Jun-17 16:26N 35°30' E 139°49'0 0.0
2018-Jun-17 15:59N 35°30' E 139°49'0 0.1
2018-Jun-17 15:29N 35°30' E 139°49'0 0.0
2018-Jun-17 14:59N 35°30' E 139°49'0 0.0
2018-Jun-17 14:29N 35°30' E 139°49'0 0.0
2018-Jun-17 13:59N 35°30' E 139°49'0 0.1
2018-Jun-17 13:23N 35°30' E 139°49'0 0.0
2018-Jun-17 12:59N 35°30' E 139°49'0 0.0
2018-Jun-17 12:26N 35°30' E 139°49'0 0.0
2018-Jun-17 11:56N 35°30' E 139°49'0 0.0
2018-Jun-17 11:20N 35°30' E 139°49'0 0.0
2018-Jun-17 10:59N 35°30' E 139°49'0 0.0
2018-Jun-17 10:29N 35°30' E 139°49'1 2.7
2018-Jun-17 10:00N 35°29' E 139°49'612.2
2018-Jun-17 09:31N 35°23' E 139°46'611.5
2018-Jun-17 09:00N 35°17' E 139°45'255 9.6
2018-Jun-16 06:27N 34°02' E 134°49'2112.9
2018-Jun-16 04:50N 34°18' E 134°32'411.5
2018-Jun-16 04:29N 34°20' E 134°28'  
Track history (hours):
 
Tides and Currents Weather Stations Pressure Air Temp Water Temp Dewpoint Dewpoint Depression Visibility Wind Speed Wind Dir Waves Ship Positions

Nikkoumaru No.5

Last reported at 2018-Jun-22 00:27 UTC. Time now 2018-Jun-23 10:22 UTC.
Position N 34°28' E 134°31'.

Length 61 m; draft 3.6 m.

Type: Tanker. MMSI: 431000214.

Date/timePositionNaut miles runAvg speedWind from/ knotsBaromVisibWave heightAir tempDewpointWater temp
2018-Jun-22 00:27N 34°28' E 134°31'811.8
2018-Jun-21 23:47N 34°31' E 134°39'411.6
2018-Jun-21 23:28N 34°32' E 134°44'1511.0
2018-Jun-21 22:05N 34°37' E 135°01'110.7
2018-Jun-21 21:59N 34°37' E 135°02'510.7
2018-Jun-21 21:30N 34°33' E 135°07'611.3
2018-Jun-21 21:01N 34°28' E 135°05'611.7
2018-Jun-21 20:30N 34°22' E 135°04'611.5
2018-Jun-21 20:00N 34°16' E 135°03'611.5
2018-Jun-21 19:30N 34°11' E 135°03'612.1
2018-Jun-21 19:00N 34°05' E 135°03'611.7
2018-Jun-21 18:30N 33°59' E 135°02'  
2018-Jun-19 06:08N 35°09' E 139°43'312.4
2018-Jun-19 05:53N 35°12' E 139°45'511.6
2018-Jun-19 05:29N 35°17' E 139°45'611.8
2018-Jun-19 05:00N 35°21' E 139°42'611.2
2018-Jun-19 04:30N 35°26' E 139°46'612.2
2018-Jun-19 04:00N 35°30' E 139°51'1 0.0
2018-Jun-17 22:13N 35°30' E 139°50'0 0.6
2018-Jun-17 21:41N 35°30' E 139°49'0 0.0
2018-Jun-17 21:26N 35°30' E 139°49'0 0.0
2018-Jun-17 20:59N 35°30' E 139°49'0 0.0
2018-Jun-17 20:11N 35°30' E 139°49'0 0.0
2018-Jun-17 19:53N 35°30' E 139°49'0 0.0
2018-Jun-17 19:29N 35°30' E 139°49'0 0.0
2018-Jun-17 18:59N 35°30' E 139°49'0 0.0
2018-Jun-17 17:47N 35°30' E 139°49'0 0.0
2018-Jun-17 17:29N 35°30' E 139°49'0 0.0
2018-Jun-17 16:59N 35°30' E 139°49'0 0.0
2018-Jun-17 16:26N 35°30' E 139°49'0 0.0
2018-Jun-17 15:59N 35°30' E 139°49'0 0.1
2018-Jun-17 15:29N 35°30' E 139°49'0 0.0
2018-Jun-17 14:59N 35°30' E 139°49'0 0.0
2018-Jun-17 14:29N 35°30' E 139°49'0 0.0
2018-Jun-17 13:59N 35°30' E 139°49'0 0.1
2018-Jun-17 13:23N 35°30' E 139°49'0 0.0
2018-Jun-17 12:59N 35°30' E 139°49'0 0.0
2018-Jun-17 12:26N 35°30' E 139°49'0 0.0
2018-Jun-17 11:56N 35°30' E 139°49'0 0.0
2018-Jun-17 11:20N 35°30' E 139°49'0 0.0
2018-Jun-17 10:59N 35°30' E 139°49'0 0.0
2018-Jun-17 10:29N 35°30' E 139°49'1 2.7
2018-Jun-17 10:00N 35°29' E 139°49'612.2
2018-Jun-17 09:31N 35°23' E 139°46'611.5
2018-Jun-17 09:00N 35°17' E 139°45'255 9.6
2018-Jun-16 06:27N 34°02' E 134°49'2112.9
2018-Jun-16 04:50N 34°18' E 134°32'411.5
2018-Jun-16 04:29N 34°20' E 134°28'  

Dump ship's entire track history